createdAt,value
2019-01-06T00:02:18.167Z,3.30
2019-01-06T00:04:50.996Z,2.87
2019-01-06T00:07:33.915Z,3.15
2019-01-06T00:10:15.920Z,2.52
2019-01-06T00:12:49.287Z,2.60
2019-01-06T00:15:28.898Z,3.20
2019-01-06T00:18:02.015Z,2.90
2019-01-06T00:20:47.058Z,2.80
2019-01-06T00:23:32.145Z,2.75
2019-01-06T00:26:15.071Z,2.60
2019-01-06T00:28:52.011Z,2.77
2019-01-06T00:31:31.629Z,2.77
2019-01-06T00:34:18.902Z,2.50
2019-01-06T00:36:49.519Z,2.50
2019-01-06T00:39:31.702Z,3.17
2019-01-06T00:42:18.473Z,3.00
2019-01-06T00:44:57.690Z,2.30
2019-01-06T00:47:34.026Z,2.10
2019-01-06T00:50:10.175Z,2.00
2019-01-06T00:52:57.511Z,2.70
2019-01-06T00:55:44.742Z,2.45
2019-01-06T00:58:31.149Z,2.65
2019-01-06T01:01:03.992Z,2.67
2019-01-06T01:03:36.819Z,2.67
2019-01-06T01:06:25.178Z,3.25
2019-01-06T01:09:13.531Z,2.80
2019-01-06T01:11:47.313Z,4.15
2019-01-06T01:14:27.842Z,2.75
2019-01-06T01:17:04.327Z,2.70
2019-01-06T01:19:37.716Z,2.40
2019-01-06T01:22:11.059Z,2.60
2019-01-06T01:24:49.913Z,2.75
2019-01-06T01:27:36.204Z,3.33
2019-01-06T01:30:22.425Z,3.05
2019-01-06T01:32:58.874Z,2.52
2019-01-06T01:35:34.877Z,2.40
2019-01-06T01:38:05.784Z,2.83
2019-01-06T01:40:52.629Z,2.60
2019-01-06T01:43:38.554Z,2.40
2019-01-06T01:46:15.216Z,2.60
2019-01-06T01:48:45.378Z,3.10
2019-01-06T01:51:30.370Z,2.90
2019-01-06T01:54:00.675Z,2.50
2019-01-06T01:56:43.164Z,3.15
2019-01-06T01:59:20.354Z,2.20
2019-01-06T02:01:59.522Z,2.10
2019-01-06T02:04:33.485Z,1.95
2019-01-06T02:07:18.481Z,2.20
2019-01-06T02:09:51.313Z,2.00
2019-01-06T02:12:27.162Z,2.40
2019-01-06T02:15:06.628Z,2.25
2019-01-06T02:17:55.551Z,2.35
2019-01-06T02:20:28.911Z,2.25
2019-01-06T02:23:03.380Z,2.22
2019-01-06T02:25:34.309Z,2.30
2019-01-06T02:28:21.467Z,2.40
2019-01-06T02:31:08.143Z,1.98
2019-01-06T02:33:44.045Z,2.30
2019-01-06T02:36:17.173Z,2.62
2019-01-06T02:38:50.116Z,2.52
2019-01-06T02:41:20.346Z,2.50
2019-01-06T02:43:53.824Z,2.50
2019-01-06T02:46:42.184Z,2.22
2019-01-06T02:49:28.905Z,2.40
2019-01-06T02:52:15.513Z,2.35
2019-01-06T02:55:00.826Z,2.72
2019-01-06T02:57:47.281Z,2.25
2019-01-06T03:00:38.985Z,2.37
2019-01-06T03:03:12.400Z,2.70
2019-01-06T03:05:46.405Z,2.00
2019-01-06T03:08:25.584Z,2.45
2019-01-06T03:11:04.466Z,2.25
2019-01-06T03:13:43.622Z,2.10
2019-01-06T03:16:30.374Z,2.83
2019-01-06T03:19:16.951Z,2.02
2019-01-06T03:21:49.798Z,2.37
2019-01-06T03:24:26.026Z,2.45
2019-01-06T03:27:13.654Z,2.70
2019-01-06T03:29:55.650Z,2.40
2019-01-06T03:32:25.900Z,2.90
2019-01-06T03:35:01.984Z,2.80
2019-01-06T03:37:32.271Z,2.77
2019-01-06T03:40:05.671Z,2.40
2019-01-06T03:42:41.643Z,2.60
2019-01-06T03:45:15.115Z,2.30
2019-01-06T03:47:55.783Z,2.07
2019-01-06T03:50:41.140Z,2.40
2019-01-06T03:53:27.553Z,2.23
2019-01-06T03:56:15.698Z,3.37
2019-01-06T03:59:02.126Z,3.13
2019-01-06T04:01:47.509Z,2.97
2019-01-06T04:04:20.368Z,3.67
2019-01-06T04:06:50.889Z,3.40
2019-01-06T04:09:29.928Z,4.60
2019-01-06T04:12:18.092Z,4.80
2019-01-06T04:14:54.059Z,5.10
2019-01-06T04:17:43.201Z,4.55
2019-01-06T04:20:29.616Z,4.87
2019-01-06T04:23:09.409Z,3.87
2019-01-06T04:25:56.496Z,5.10
2019-01-06T04:28:32.809Z,3.65
2019-01-06T04:31:21.638Z,5.90
2019-01-06T04:33:52.335Z,5.33
2019-01-06T04:36:28.530Z,5.45
2019-01-06T04:38:59.729Z,6.92
2019-01-06T04:41:35.590Z,5.87
2019-01-06T04:44:06.792Z,6.42
2019-01-06T04:46:51.845Z,6.75
2019-01-06T04:49:30.798Z,5.40
2019-01-06T04:52:01.047Z,6.67
2019-01-06T04:54:33.911Z,7.12
2019-01-06T04:57:07.196Z,5.75
2019-01-06T04:59:43.750Z,5.05
2019-01-06T05:02:14.498Z,4.92
2019-01-06T05:04:51.242Z,6.10
2019-01-06T05:07:27.702Z,6.97
2019-01-06T05:10:01.105Z,6.60
2019-01-06T05:12:34.862Z,6.75
2019-01-06T05:15:14.928Z,7.12
2019-01-06T05:17:50.734Z,6.05
2019-01-06T05:20:21.208Z,5.70
2019-01-06T05:22:52.287Z,6.62
2019-01-06T05:25:39.138Z,5.83
2019-01-06T05:28:25.660Z,4.95
2019-01-06T05:30:56.045Z,5.55
2019-01-06T05:33:41.070Z,6.15
2019-01-06T05:36:27.839Z,6.72
2019-01-06T05:38:58.761Z,6.72
2019-01-06T05:41:29.966Z,6.80
2019-01-06T05:44:11.843Z,6.70
2019-01-06T05:46:45.071Z,7.25
2019-01-06T05:49:15.724Z,6.87
2019-01-06T05:51:47.210Z,6.17
2019-01-06T05:54:18.065Z,6.35
2019-01-06T05:57:04.312Z,4.75
2019-01-06T05:59:43.573Z,4.33
2019-01-06T06:02:22.766Z,5.00
2019-01-06T06:04:53.104Z,3.20
2019-01-06T06:07:26.258Z,3.50
2019-01-06T06:09:59.204Z,3.17
2019-01-06T06:12:47.488Z,2.10
2019-01-06T06:15:34.095Z,1.90
2019-01-06T06:18:16.072Z,0.67
2019-01-06T06:21:03.472Z,0.90
2019-01-06T06:23:42.581Z,0.80
2019-01-06T06:26:29.764Z,0.70
2019-01-06T06:29:03.205Z,0.80
2019-01-06T06:31:36.929Z,0.57
2019-01-06T06:34:08.071Z,0.70
2019-01-06T06:36:55.477Z,0.70
2019-01-06T06:39:31.715Z,0.80
2019-01-06T06:42:02.044Z,0.90
2019-01-06T06:44:38.235Z,0.70
2019-01-06T06:47:14.780Z,1.07
2019-01-06T06:49:52.453Z,0.60
2019-01-06T06:52:35.239Z,0.53
2019-01-06T06:55:14.865Z,0.87
2019-01-06T06:58:20.327Z,0.90
2019-01-06T07:00:59.624Z,0.97
2019-01-06T07:03:55.834Z,1.63
2019-01-06T07:06:32.741Z,1.70
2019-01-06T07:09:18.286Z,0.97
2019-01-06T07:12:05.182Z,1.13
2019-01-06T07:14:41.953Z,1.30
2019-01-06T07:17:46.805Z,1.00
2019-01-06T07:20:24.773Z,1.80
2019-01-06T07:23:12.827Z,2.50
2019-01-06T07:25:46.523Z,2.77
2019-01-06T07:28:17.248Z,2.90
2019-01-06T07:30:50.860Z,1.55
2019-01-06T07:33:38.308Z,1.32
2019-01-06T07:36:18.438Z,1.80
2019-01-06T07:39:00.841Z,1.65
2019-01-06T07:41:39.748Z,3.67
2019-01-06T07:44:17.205Z,2.00
2019-01-06T07:47:03.899Z,1.37
2019-01-06T07:49:46.754Z,0.90
2019-01-06T07:52:20.099Z,1.25
2019-01-06T07:54:50.936Z,0.72
2019-01-06T07:57:30.491Z,1.20
2019-01-06T08:00:14.864Z,0.85
2019-01-06T08:02:55.671Z,1.10
2019-01-06T08:05:38.417Z,1.00
2019-01-06T08:08:11.948Z,1.00
2019-01-06T08:10:54.558Z,0.70
2019-01-06T08:13:34.048Z,0.90
2019-01-06T08:16:19.549Z,0.65
2019-01-06T08:18:50.271Z,1.77
2019-01-06T08:21:33.023Z,0.88
2019-01-06T08:24:04.053Z,1.10
2019-01-06T08:26:37.102Z,1.47
2019-01-06T08:29:16.153Z,1.25
2019-01-06T08:32:04.093Z,1.25
2019-01-06T08:34:38.364Z,1.40
2019-01-06T08:37:18.210Z,1.20
2019-01-06T08:39:51.891Z,1.40
2019-01-06T08:42:40.345Z,1.67
2019-01-06T08:45:14.429Z,1.17
2019-01-06T08:48:03.537Z,1.37
2019-01-06T08:50:34.242Z,2.27
2019-01-06T08:53:23.537Z,1.77
2019-01-06T08:56:10.993Z,2.47
2019-01-06T08:58:41.511Z,2.30
2019-01-06T09:01:17.885Z,2.30
2019-01-06T09:04:05.074Z,2.20
2019-01-06T09:06:43.908Z,2.42
2019-01-06T09:09:32.528Z,1.40
2019-01-06T09:12:02.855Z,1.40
2019-01-06T09:14:50.460Z,0.95
2019-01-06T09:17:20.687Z,1.30
2019-01-06T09:19:51.481Z,1.22
2019-01-06T09:22:38.778Z,1.30
2019-01-06T09:25:17.088Z,1.22
2019-01-06T09:27:47.853Z,1.12
2019-01-06T09:30:30.865Z,1.40
2019-01-06T09:33:07.937Z,1.37
2019-01-06T09:35:41.282Z,1.05
2019-01-06T09:38:12.145Z,1.10
2019-01-06T09:40:43.131Z,1.10
2019-01-06T09:43:25.839Z,1.10
2019-01-06T09:46:15.405Z,1.00
2019-01-06T09:48:51.569Z,1.70
2019-01-06T09:51:31.963Z,1.40
2019-01-06T09:54:08.477Z,0.85
2019-01-06T09:56:51.515Z,1.30
2019-01-06T09:59:36.509Z,1.40
2019-01-06T10:02:23.387Z,1.70
2019-01-06T10:05:12.867Z,1.50
2019-01-06T10:07:49.676Z,2.10
2019-01-06T10:10:23.734Z,1.60
2019-01-06T10:13:11.375Z,2.37
2019-01-06T10:15:44.818Z,2.30
2019-01-06T10:18:27.185Z,3.22
2019-01-06T10:20:57.917Z,2.50
2019-01-06T10:23:28.759Z,3.05
2019-01-06T10:26:00.051Z,2.47
2019-01-06T10:28:31.337Z,1.77
2019-01-06T10:31:14.631Z,2.75
2019-01-06T10:33:54.343Z,1.90
2019-01-06T10:36:36.432Z,2.37
2019-01-06T10:39:20.592Z,1.70
2019-01-06T10:41:56.803Z,1.80
2019-01-06T10:44:42.345Z,1.30
2019-01-06T10:47:15.926Z,0.93
2019-01-06T10:49:55.831Z,0.75
2019-01-06T10:52:29.865Z,1.07
2019-01-06T10:55:17.488Z,1.02
2019-01-06T10:57:48.416Z,1.22
2019-01-06T11:00:37.360Z,1.47
2019-01-06T11:03:10.790Z,1.47
2019-01-06T11:05:57.036Z,1.80
2019-01-06T11:08:34.140Z,1.20
2019-01-06T11:11:11.480Z,2.20
2019-01-06T11:13:44.807Z,1.50
2019-01-06T11:16:32.162Z,1.90
2019-01-06T11:19:06.086Z,1.72
2019-01-06T11:21:42.929Z,1.10
2019-01-06T11:24:19.343Z,0.90
2019-01-06T11:27:02.282Z,1.17
2019-01-06T11:29:33.060Z,2.33
2019-01-06T11:32:03.564Z,1.60
2019-01-06T11:34:34.509Z,2.22
2019-01-06T11:37:10.905Z,3.80
2019-01-06T11:39:58.213Z,4.12
2019-01-06T11:42:28.967Z,2.95
2019-01-06T11:45:08.728Z,2.90
2019-01-06T11:47:45.233Z,3.15
2019-01-06T11:50:15.805Z,2.80
2019-01-06T11:52:58.687Z,3.12
2019-01-06T11:55:29.640Z,2.67
2019-01-06T11:58:16.494Z,4.22
2019-01-06T12:00:56.756Z,2.58
2019-01-06T12:03:43.670Z,3.10
2019-01-06T12:06:14.592Z,2.30
2019-01-06T12:08:48.835Z,3.72
2019-01-06T12:11:19.656Z,7.75
2019-01-06T12:14:06.281Z,5.20
2019-01-06T12:16:53.823Z,3.65
2019-01-06T12:19:33.687Z,3.50
2019-01-06T12:22:09.364Z,3.77
2019-01-06T12:24:40.283Z,3.55
2019-01-06T12:27:14.334Z,3.55
2019-01-06T12:30:00.976Z,7.40
2019-01-06T12:32:34.446Z,5.75
2019-01-06T12:35:13.947Z,4.00
2019-01-06T12:38:03.280Z,4.70
2019-01-06T12:40:51.322Z,3.70
2019-01-06T12:43:25.657Z,3.83
2019-01-06T12:46:08.131Z,2.87
2019-01-06T12:48:41.363Z,3.70
2019-01-06T12:51:11.575Z,3.20
2019-01-06T12:53:58.760Z,3.15
2019-01-06T12:56:45.713Z,2.98
2019-01-06T12:59:29.138Z,3.05
2019-01-06T13:02:03.672Z,3.25
2019-01-06T13:04:34.517Z,2.65
2019-01-06T13:07:11.482Z,2.98
2019-01-06T13:09:51.031Z,3.10
2019-01-06T13:12:40.041Z,3.12
2019-01-06T13:15:10.997Z,3.85
2019-01-06T13:17:41.828Z,3.37
2019-01-06T13:20:15.221Z,3.02
2019-01-06T13:22:52.721Z,2.90
2019-01-06T13:25:23.698Z,3.10
2019-01-06T13:28:01.365Z,2.15
2019-01-06T13:30:34.475Z,3.55
2019-01-06T13:33:20.804Z,3.45
2019-01-06T13:36:07.470Z,2.40
2019-01-06T13:38:37.693Z,2.77
2019-01-06T13:41:13.792Z,2.02
2019-01-06T13:44:00.953Z,1.98
2019-01-06T13:46:46.830Z,1.62
2019-01-06T13:49:20.583Z,2.17
2019-01-06T13:51:54.282Z,2.10
2019-01-06T13:54:30.315Z,1.77
2019-01-06T13:57:16.802Z,1.75
2019-01-06T14:00:02.690Z,2.10
2019-01-06T14:02:40.180Z,1.70
2019-01-06T14:05:16.678Z,2.10
2019-01-06T14:08:05.808Z,2.20
2019-01-06T14:10:42.538Z,2.40
2019-01-06T14:13:15.853Z,2.40
2019-01-06T14:16:02.825Z,2.02
2019-01-06T14:18:48.213Z,2.10
2019-01-06T14:21:33.211Z,1.70
2019-01-06T14:24:18.921Z,1.75
2019-01-06T14:26:49.153Z,1.75
2019-01-06T14:29:35.864Z,1.50
2019-01-06T14:32:09.682Z,1.70
2019-01-06T14:34:43.367Z,1.52
2019-01-06T14:37:29.548Z,2.30
2019-01-06T14:40:00.197Z,1.55
2019-01-06T14:42:47.301Z,1.67
2019-01-06T14:45:34.618Z,1.25
2019-01-06T14:48:08.421Z,1.30
2019-01-06T14:50:42.094Z,1.60
2019-01-06T14:53:18.487Z,2.17
2019-01-06T14:56:04.424Z,1.67
2019-01-06T14:58:40.903Z,1.60
2019-01-06T15:01:11.124Z,1.98
2019-01-06T15:03:53.328Z,2.05
2019-01-06T15:06:23.496Z,3.60
2019-01-06T15:08:57.223Z,3.90
2019-01-06T15:11:44.294Z,3.00
2019-01-06T15:14:29.482Z,2.83
2019-01-06T15:17:16.928Z,2.00
2019-01-06T15:20:05.989Z,1.75
2019-01-06T15:22:52.197Z,1.92
2019-01-06T15:25:25.585Z,2.33
2019-01-06T15:27:56.346Z,2.67
2019-01-06T15:30:33.508Z,1.50
2019-01-06T15:33:05.252Z,1.10
2019-01-06T15:35:38.218Z,1.25
2019-01-06T15:38:09.104Z,1.30
2019-01-06T15:40:41.949Z,1.90
2019-01-06T15:43:20.849Z,1.85
2019-01-06T15:45:59.688Z,2.40
2019-01-06T15:48:29.899Z,1.30
2019-01-06T15:51:08.754Z,1.45
2019-01-06T15:53:45.161Z,1.30
2019-01-06T15:56:35.463Z,2.60
2019-01-06T15:59:17.976Z,1.80
2019-01-06T16:01:58.382Z,1.40
2019-01-06T16:04:38.096Z,1.05
2019-01-06T16:07:08.863Z,1.20
2019-01-06T16:09:42.552Z,1.60
2019-01-06T16:12:30.599Z,1.82
2019-01-06T16:15:07.457Z,1.10
2019-01-06T16:17:54.768Z,1.70
2019-01-06T16:20:25.558Z,1.40
2019-01-06T16:22:59.246Z,1.37
2019-01-06T16:25:46.832Z,1.50
2019-01-06T16:28:18.529Z,1.10
2019-01-06T16:30:58.921Z,1.40
2019-01-06T16:33:45.441Z,1.25
2019-01-06T16:36:18.710Z,1.37
2019-01-06T16:38:48.927Z,1.02
2019-01-06T16:41:36.994Z,1.00
2019-01-06T16:44:10.069Z,1.30
2019-01-06T16:46:57.419Z,1.40
2019-01-06T16:49:27.809Z,2.20
2019-01-06T16:52:14.626Z,1.37
2019-01-06T16:54:47.818Z,1.35
2019-01-06T16:57:30.454Z,2.55
2019-01-06T17:00:06.996Z,2.00
2019-01-06T17:02:43.564Z,3.52
2019-01-06T17:05:14.348Z,1.80
2019-01-06T17:08:02.172Z,2.30
2019-01-06T17:10:47.660Z,2.47
2019-01-06T17:13:24.376Z,2.25
2019-01-06T17:15:57.206Z,1.90
2019-01-06T17:18:42.509Z,3.50
2019-01-06T17:21:28.692Z,1.77
2019-01-06T17:23:58.882Z,2.22
2019-01-06T17:26:32.604Z,2.60
2019-01-06T17:29:12.736Z,3.30
2019-01-06T17:31:55.348Z,1.00
2019-01-06T17:34:32.096Z,2.10
2019-01-06T17:37:02.828Z,1.32
2019-01-06T17:39:51.803Z,2.35
2019-01-06T17:42:28.036Z,1.35
2019-01-06T17:45:11.096Z,1.12
2019-01-06T17:47:41.837Z,1.42
2019-01-06T17:50:15.132Z,1.65
2019-01-06T17:53:02.468Z,1.50
2019-01-06T17:55:49.289Z,2.25
2019-01-06T17:58:36.490Z,1.20
2019-01-06T18:01:15.844Z,0.90
2019-01-06T18:03:58.266Z,1.60
2019-01-06T18:06:31.405Z,3.20
2019-01-06T18:09:17.287Z,4.62
2019-01-06T18:11:48.338Z,3.00
2019-01-06T18:14:35.993Z,1.80
2019-01-06T18:17:06.699Z,1.82
2019-01-06T18:19:54.070Z,1.70
2019-01-06T18:22:25.533Z,2.40
2019-01-06T18:25:11.793Z,1.60
2019-01-06T18:27:46.437Z,2.90
2019-01-06T18:30:23.372Z,2.08
2019-01-06T18:33:12.282Z,2.90
2019-01-06T18:35:59.499Z,1.75
2019-01-06T18:38:38.802Z,1.25
2019-01-06T18:41:15.287Z,1.00
2019-01-06T18:43:48.131Z,1.22
2019-01-06T18:46:18.383Z,1.45
2019-01-06T18:49:01.263Z,2.27
2019-01-06T18:51:36.971Z,1.60
2019-01-06T18:54:10.419Z,2.08
2019-01-06T18:56:58.984Z,2.00
2019-01-06T18:59:32.552Z,1.52
2019-01-06T19:02:20.379Z,2.08
2019-01-06T19:05:10.131Z,1.90
2019-01-06T19:07:47.084Z,1.72
2019-01-06T19:10:33.157Z,3.10
2019-01-06T19:13:20.284Z,7.15
2019-01-06T19:15:53.846Z,4.05
2019-01-06T19:18:25.545Z,3.90
2019-01-06T19:20:59.915Z,2.87
2019-01-06T19:23:47.571Z,4.30
2019-01-06T19:26:21.382Z,3.92
2019-01-06T19:29:08.439Z,3.58
2019-01-06T19:31:41.259Z,2.60
2019-01-06T19:34:18.204Z,2.12
2019-01-06T19:36:48.367Z,1.12
2019-01-06T19:39:35.406Z,0.90
2019-01-06T19:42:22.005Z,1.00
2019-01-06T19:44:55.922Z,1.20
2019-01-06T19:47:33.309Z,0.90
2019-01-06T19:50:06.533Z,1.00
2019-01-06T19:52:43.076Z,1.17
2019-01-06T19:55:25.691Z,1.70
2019-01-06T19:58:08.502Z,1.50
2019-01-06T20:00:48.257Z,1.35
2019-01-06T20:03:30.633Z,2.65
2019-01-06T20:06:03.942Z,3.20
2019-01-06T20:08:40.568Z,2.95
2019-01-06T20:11:14.569Z,3.00
2019-01-06T20:14:01.744Z,2.72
2019-01-06T20:16:47.776Z,2.35
2019-01-06T20:19:24.386Z,2.47
2019-01-06T20:22:00.440Z,2.08
2019-01-06T20:24:32.221Z,2.72
2019-01-06T20:27:19.658Z,2.60
2019-01-06T20:30:08.647Z,3.25
2019-01-06T20:32:48.541Z,3.10
2019-01-06T20:35:36.076Z,2.42
2019-01-06T20:38:07.122Z,3.45
2019-01-06T20:40:54.417Z,4.05
2019-01-06T20:43:27.775Z,3.00
2019-01-06T20:46:01.536Z,2.50
2019-01-06T20:48:31.947Z,2.87
2019-01-06T20:51:05.602Z,2.60
2019-01-06T20:53:53.507Z,3.20
2019-01-06T20:56:38.666Z,3.27
2019-01-06T20:59:14.459Z,3.22
2019-01-06T21:01:59.477Z,4.83
2019-01-06T21:04:35.324Z,4.60
2019-01-06T21:07:08.785Z,3.30
2019-01-06T21:09:39.501Z,3.60
2019-01-06T21:12:27.280Z,3.95
2019-01-06T21:15:16.427Z,4.30
2019-01-06T21:17:47.245Z,3.95
2019-01-06T21:20:17.863Z,4.60
2019-01-06T21:22:48.705Z,5.15
2019-01-06T21:25:28.228Z,3.80
2019-01-06T21:27:59.914Z,3.62
2019-01-06T21:30:47.051Z,4.87
2019-01-06T21:33:33.423Z,4.60
2019-01-06T21:36:21.867Z,5.08
2019-01-06T21:39:06.983Z,5.85
2019-01-06T21:41:43.332Z,6.08
2019-01-06T21:44:16.165Z,4.70
2019-01-06T21:47:05.102Z,4.80
2019-01-06T21:49:35.383Z,4.70
2019-01-06T21:52:08.577Z,5.42
2019-01-06T21:54:56.062Z,5.33
2019-01-06T21:57:32.180Z,7.00
2019-01-06T22:00:12.607Z,7.30
2019-01-06T22:02:50.215Z,7.58
2019-01-06T22:05:21.445Z,6.40
2019-01-06T22:08:08.526Z,9.33
2019-01-06T22:10:38.803Z,8.83
2019-01-06T22:13:21.050Z,5.65
2019-01-06T22:16:07.666Z,4.22
2019-01-06T22:18:37.960Z,2.40
2019-01-06T22:21:08.167Z,2.83
2019-01-06T22:23:38.512Z,2.35
2019-01-06T22:26:11.264Z,2.15
2019-01-06T22:28:47.340Z,2.20
2019-01-06T22:31:33.830Z,2.62
2019-01-06T22:34:16.908Z,2.55
2019-01-06T22:36:47.940Z,3.87
2019-01-06T22:39:27.561Z,3.25
2019-01-06T22:42:00.947Z,3.55
2019-01-06T22:44:37.712Z,3.70
2019-01-06T22:47:14.097Z,3.47
2019-01-06T22:50:00.449Z,3.00
2019-01-06T22:52:47.832Z,3.10
2019-01-06T22:55:35.115Z,3.90
2019-01-06T22:58:09.350Z,3.42
2019-01-06T23:00:43.336Z,3.50
2019-01-06T23:03:16.627Z,3.30
2019-01-06T23:05:53.122Z,3.40
2019-01-06T23:08:40.645Z,4.22
2019-01-06T23:11:14.029Z,5.85
2019-01-06T23:13:50.075Z,4.92
2019-01-06T23:16:20.332Z,4.00
2019-01-06T23:18:56.889Z,3.40
2019-01-06T23:21:36.437Z,2.90
2019-01-06T23:24:20.637Z,5.67
2019-01-06T23:26:51.322Z,3.12
2019-01-06T23:29:22.040Z,3.60
2019-01-06T23:32:01.580Z,3.22
2019-01-06T23:34:32.323Z,2.75
2019-01-06T23:37:03.375Z,3.00
2019-01-06T23:39:37.133Z,2.60
2019-01-06T23:42:07.810Z,3.20
2019-01-06T23:44:41.509Z,2.83
2019-01-06T23:47:24.406Z,3.05
2019-01-06T23:49:57.736Z,2.75
2019-01-06T23:52:44.132Z,2.90
2019-01-06T23:55:31.556Z,4.15
2019-01-06T23:58:13.568Z,4.35
